Time;durP1;ratioP1;P1;durP2;ratioP2;P2;SDS_P1;SDS_P2;PMS_P1;PMS_P2;Temp;Humidity;BMP_temperature;BMP_pressure;BME280_temperature;BME280_humidity;BME280_pressure;Samples;Min_cycle;Max_cycle;Signal;HPM_P1;HPM_P2
2022/09/24 00:00:57;;;;;;;;;;;20.30;43.80;;;;;;8302439;28;19972;-43
2022/09/24 00:04:58;;;;;;;;;;;20.30;43.80;;;;;;8302162;28;19927;-43
2022/09/24 00:08:58;;;;;;;;;;;20.30;43.90;;;;;;8301493;28;20000;-44
2022/09/24 00:12:59;;;;;;;;;;;20.30;43.80;;;;;;8301686;28;20271;-42
2022/09/24 00:16:59;;;;;;;;;;;20.30;43.90;;;;;;8301905;28;19914;-43
2022/09/24 00:21:00;;;;;;;;;;;20.30;43.90;;;;;;8301057;28;19948;-43
2022/09/24 00:29:39;;;;;;;;;;;20.30;43.90;;;;;;8283161;28;19976;-44
2022/09/24 00:33:39;;;;;;;;;;;20.30;43.90;;;;;;8289322;28;19968;-44
2022/09/24 00:37:40;;;;;;;;;;;20.30;43.90;;;;;;8333801;28;19921;-44
2022/09/24 00:41:45;;;;;;;;;;;20.30;43.90;;;;;;8333181;28;19917;-43
2022/09/24 00:45:46;;;;;;;;;;;20.30;43.90;;;;;;8333752;28;19925;-44
2022/09/24 00:49:47;;;;;;;;;;;20.30;43.90;;;;;;8333321;28;20004;-44
2022/09/24 00:53:49;;;;;;;;;;;20.30;43.90;;;;;;8332699;28;19925;-44
2022/09/24 00:57:55;;;;;;;;;;;20.20;43.90;;;;;;8333534;28;19937;-44
2022/09/24 01:01:57;;;;;;;;;;;20.20;43.90;;;;;;8333451;28;19963;-43
2022/09/24 01:05:58;;;;;;;;;;;20.30;44.00;;;;;;8331113;28;19917;-45
2022/09/24 01:09:59;;;;;;;;;;;20.20;43.90;;;;;;8332472;28;20003;-46
2022/09/24 01:14:02;;;;;;;;;;;20.20;43.90;;;;;;8332466;28;19952;-43
2022/09/24 01:18:10;;;;;;;;;;;20.20;44.00;;;;;;8331880;28;19917;-44
2022/09/24 01:22:18;;;;;;;;;;;20.20;44.00;;;;;;8332473;28;19918;-42
2022/09/24 01:26:32;;;;;;;;;;;20.30;44.10;;;;;;8331013;28;19947;-43
2022/09/24 01:30:33;;;;;;;;;;;20.20;44.00;;;;;;8331817;28;19921;-43
2022/09/24 01:34:46;;;;;;;;;;;20.20;44.10;;;;;;8331307;28;19947;-42
2022/09/24 01:38:49;;;;;;;;;;;20.20;44.00;;;;;;8331035;28;20063;-43
2022/09/24 01:42:51;;;;;;;;;;;20.20;44.10;;;;;;8332143;28;20429;-43
2022/09/24 01:46:51;;;;;;;;;;;20.20;44.00;;;;;;8331361;28;19924;-42
2022/09/24 01:50:58;;;;;;;;;;;20.20;44.10;;;;;;8330598;28;19918;-45
2022/09/24 01:54:59;;;;;;;;;;;20.20;44.10;;;;;;8331282;28;19951;-43
2022/09/24 01:59:01;;;;;;;;;;;20.20;44.10;;;;;;8330966;28;20388;-43
2022/09/24 02:03:16;;;;;;;;;;;20.20;44.10;;;;;;8330678;28;19913;-45
2022/09/24 02:07:22;;;;;;;;;;;20.20;44.20;;;;;;8330604;28;19928;-44
2022/09/24 02:11:23;;;;;;;;;;;20.20;44.10;;;;;;8330584;28;19921;-43
2022/09/24 02:15:27;;;;;;;;;;;20.20;44.20;;;;;;8329941;28;19971;-43
2022/09/24 02:19:28;;;;;;;;;;;20.20;44.20;;;;;;8330401;28;19921;-44
2022/09/24 02:23:31;;;;;;;;;;;20.20;44.20;;;;;;8330025;28;20363;-43
2022/09/24 02:27:31;;;;;;;;;;;20.20;44.70;;;;;;8330958;28;19917;-44
2022/09/24 02:31:51;;;;;;;;;;;20.20;44.20;;;;;;8330395;28;19932;-43
2022/09/24 02:35:52;;;;;;;;;;;20.20;44.80;;;;;;8329948;28;19925;-43
2022/09/24 02:39:52;;;;;;;;;;;20.10;44.20;;;;;;8330364;28;20286;-42
2022/09/24 02:43:53;;;;;;;;;;;20.20;44.30;;;;;;8330203;28;20492;-44
2022/09/24 02:47:53;;;;;;;;;;;20.20;44.30;;;;;;8333437;28;20293;-44
2022/09/24 02:51:54;;;;;;;;;;;20.20;44.30;;;;;;8337222;28;19925;-43
2022/09/24 02:55:55;;;;;;;;;;;20.10;44.80;;;;;;8336960;28;19919;-43
2022/09/24 02:59:55;;;;;;;;;;;20.10;44.20;;;;;;8336238;28;20279;-43
2022/09/24 03:03:56;;;;;;;;;;;20.10;44.30;;;;;;8336913;28;20263;-43
2022/09/24 03:07:57;;;;;;;;;;;20.10;44.30;;;;;;8336889;28;19924;-43
2022/09/24 03:11:59;;;;;;;;;;;20.10;44.30;;;;;;8335914;28;19925;-43
2022/09/24 03:15:59;;;;;;;;;;;20.10;44.30;;;;;;8336241;28;19928;-42
2022/09/24 03:20:00;;;;;;;;;;;20.10;44.30;;;;;;8336056;28;20342;-44
2022/09/24 03:24:02;;;;;;;;;;;20.10;44.30;;;;;;8335717;28;20336;-41
2022/09/24 03:28:02;;;;;;;;;;;20.10;44.40;;;;;;8336337;28;20324;-43
2022/09/24 03:32:03;;;;;;;;;;;20.10;44.40;;;;;;8335882;28;19929;-42
2022/09/24 03:36:08;;;;;;;;;;;20.10;44.40;;;;;;8335142;28;19921;-44
2022/09/24 03:40:08;;;;;;;;;;;20.10;44.40;;;;;;8335850;28;19913;-43
2022/09/24 03:44:09;;;;;;;;;;;20.10;44.40;;;;;;8335397;28;19921;-43
2022/09/24 03:48:10;;;;;;;;;;;20.10;44.40;;;;;;8334999;28;19917;-43
2022/09/24 03:52:11;;;;;;;;;;;20.10;44.40;;;;;;8335172;28;20502;-45
2022/09/24 03:56:12;;;;;;;;;;;20.10;44.40;;;;;;8334906;28;19913;-46
2022/09/24 04:00:13;;;;;;;;;;;20.10;44.40;;;;;;8333828;28;20007;-45
2022/09/24 04:04:15;;;;;;;;;;;20.10;44.50;;;;;;8334754;28;19913;-45
2022/09/24 04:08:16;;;;;;;;;;;20.10;44.50;;;;;;8324917;28;20429;-43
2022/09/24 04:12:16;;;;;;;;;;;20.10;44.50;;;;;;8326821;28;19936;-45
2022/09/24 04:16:17;;;;;;;;;;;20.10;44.50;;;;;;8334628;28;19917;-43
2022/09/24 04:20:21;;;;;;;;;;;20.10;44.70;;;;;;8356223;28;20028;-44
2022/09/24 04:24:21;;;;;;;;;;;20.10;44.60;;;;;;8333706;28;19919;-43
2022/09/24 04:28:23;;;;;;;;;;;20.10;44.50;;;;;;8334121;28;19917;-43
2022/09/24 04:32:23;;;;;;;;;;;20.10;44.50;;;;;;8333978;28;19925;-43
2022/09/24 04:36:24;;;;;;;;;;;20.10;44.50;;;;;;8333436;28;20050;-44
2022/09/24 04:40:25;;;;;;;;;;;20.10;44.50;;;;;;8333744;28;19936;-44
2022/09/24 04:44:26;;;;;;;;;;;20.10;44.40;;;;;;8333709;28;19917;-44
2022/09/24 04:48:27;;;;;;;;;;;20.10;44.50;;;;;;8333744;28;19917;-44
2022/09/24 04:52:30;;;;;;;;;;;20.10;44.50;;;;;;8333195;28;20291;-44
2022/09/24 04:56:30;;;;;;;;;;;20.10;44.50;;;;;;8332917;28;20290;-44
2022/09/24 05:00:32;;;;;;;;;;;20.10;44.40;;;;;;8333045;28;20004;-43
2022/09/24 05:04:32;;;;;;;;;;;20.10;44.50;;;;;;8332919;28;19917;-44
2022/09/24 05:08:33;;;;;;;;;;;20.10;44.50;;;;;;8332621;28;19979;-45
2022/09/24 05:12:35;;;;;;;;;;;20.10;44.50;;;;;;8332636;28;19971;-44
2022/09/24 05:16:35;;;;;;;;;;;20.10;44.50;;;;;;8332783;28;20271;-44
2022/09/24 05:20:36;;;;;;;;;;;20.10;44.50;;;;;;8331947;28;19921;-44
2022/09/24 05:24:36;;;;;;;;;;;20.10;44.50;;;;;;8332819;28;19963;-44
2022/09/24 05:28:38;;;;;;;;;;;20.10;44.60;;;;;;8332079;28;19924;-43
2022/09/24 05:32:38;;;;;;;;;;;20.10;44.60;;;;;;8331533;28;20379;-45
2022/09/24 05:36:40;;;;;;;;;;;20.10;44.60;;;;;;8331691;28;19925;-45
2022/09/24 05:40:47;;;;;;;;;;;20.00;44.60;;;;;;8331855;28;20017;-44
2022/09/24 05:44:47;;;;;;;;;;;20.00;44.60;;;;;;8331303;28;20251;-44
2022/09/24 05:48:48;;;;;;;;;;;20.00;45.10;;;;;;8331600;28;19921;-45
2022/09/24 05:52:49;;;;;;;;;;;20.00;44.60;;;;;;8331100;28;20011;-45
2022/09/24 05:56:49;;;;;;;;;;;20.00;44.70;;;;;;8330617;28;19921;-45
2022/09/24 06:00:50;;;;;;;;;;;20.00;44.60;;;;;;8331401;28;20015;-44
2022/09/24 06:04:50;;;;;;;;;;;20.00;44.60;;;;;;8331038;28;19917;-44
2022/09/24 06:08:51;;;;;;;;;;;20.10;44.70;;;;;;8330326;28;20354;-44
2022/09/24 06:12:52;;;;;;;;;;;20.00;44.70;;;;;;8330665;28;19925;-44
2022/09/24 06:16:52;;;;;;;;;;;20.00;45.30;;;;;;8330821;28;19967;-44
2022/09/24 06:20:54;;;;;;;;;;;20.00;45.30;;;;;;8329643;28;20385;-46
2022/09/24 06:24:54;;;;;;;;;;;20.00;45.30;;;;;;8330715;28;19913;-45
2022/09/24 06:28:55;;;;;;;;;;;20.00;45.40;;;;;;8330495;28;19917;-45
2022/09/24 06:33:00;;;;;;;;;;;20.00;45.20;;;;;;8329888;28;19925;-45
2022/09/24 06:37:01;;;;;;;;;;;20.00;46.40;;;;;;8330524;28;20417;-44
2022/09/24 06:41:03;;;;;;;;;;;20.00;46.80;;;;;;8330102;28;19913;-43
2022/09/24 06:45:04;;;;;;;;;;;19.90;47.00;;;;;;8329905;28;19962;-44
2022/09/24 06:49:04;;;;;;;;;;;19.90;47.00;;;;;;8330050;28;20315;-44
2022/09/24 06:53:05;;;;;;;;;;;19.90;46.70;;;;;;8329786;28;20297;-44
2022/09/24 06:57:05;;;;;;;;;;;19.90;46.70;;;;;;8329385;28;19929;-44
2022/09/24 07:01:06;;;;;;;;;;;19.90;47.10;;;;;;8329831;28;19913;-44
2022/09/24 07:05:07;;;;;;;;;;;19.90;46.60;;;;;;8329947;28;19917;-44
2022/09/24 07:09:08;;;;;;;;;;;19.90;46.40;;;;;;8328746;28;20348;-44
2022/09/24 07:13:09;;;;;;;;;;;19.90;46.20;;;;;;8329721;28;19929;-44
2022/09/24 07:17:09;;;;;;;;;;;19.90;46.30;;;;;;8329732;28;19921;-46
2022/09/24 07:21:09;;;;;;;;;;;19.90;46.10;;;;;;8328977;28;19924;-43
2022/09/24 07:25:10;;;;;;;;;;;19.90;46.30;;;;;;8329933;28;20343;-45
2022/09/24 07:29:11;;;;;;;;;;;19.90;46.50;;;;;;8329368;28;19917;-44
2022/09/24 07:33:11;;;;;;;;;;;19.90;46.40;;;;;;8329082;28;19925;-45
2022/09/24 07:37:12;;;;;;;;;;;19.90;46.70;;;;;;8335679;28;20271;-45
2022/09/24 07:41:12;;;;;;;;;;;19.90;46.50;;;;;;8335265;28;19924;-44
2022/09/24 07:45:12;;;;;;;;;;;19.90;46.20;;;;;;8335041;28;19913;-44
2022/09/24 07:49:13;;;;;;;;;;;19.90;46.20;;;;;;8335134;28;20016;-45
2022/09/24 07:53:14;;;;;;;;;;;19.90;46.50;;;;;;8334948;28;19925;-44
2022/09/24 07:57:14;;;;;;;;;;;19.90;46.40;;;;;;8333327;28;19923;-44
2022/09/24 08:01:16;;;;;;;;;;;19.90;46.50;;;;;;8334814;28;20362;-44
2022/09/24 08:05:16;;;;;;;;;;;20.00;46.60;;;;;;8334882;28;19917;-44
2022/09/24 08:09:17;;;;;;;;;;;19.90;46.50;;;;;;8334128;28;19917;-44
2022/09/24 08:13:18;;;;;;;;;;;19.90;46.80;;;;;;8334399;28;19925;-44
2022/09/24 08:17:18;;;;;;;;;;;19.90;46.90;;;;;;8334415;28;19944;-44
2022/09/24 08:21:19;;;;;;;;;;;20.00;47.10;;;;;;8333939;28;19948;-44
2022/09/24 08:25:19;;;;;;;;;;;20.00;47.10;;;;;;8334304;28;19917;-44
2022/09/24 08:29:20;;;;;;;;;;;20.00;46.70;;;;;;8333926;28;19921;-44
2022/09/24 08:33:20;;;;;;;;;;;19.90;46.60;;;;;;8333156;28;19925;-44
2022/09/24 08:37:21;;;;;;;;;;;20.00;46.70;;;;;;8333515;28;19943;-45
2022/09/24 08:41:43;;;;;;;;;;;19.90;46.50;;;;;;8333713;28;19917;-44
2022/09/24 08:50:08;;;;;;;;;;;19.90;46.40;;;;;;8333765;28;20000;-43
2022/09/24 08:54:09;;;;;;;;;;;19.90;46.50;;;;;;8332693;28;20267;-46
2022/09/24 08:58:16;;;;;;;;;;;19.90;46.50;;;;;;8333291;28;19921;-44
2022/09/24 09:02:16;;;;;;;;;;;19.90;46.60;;;;;;8332887;28;20294;-44
2022/09/24 09:06:22;;;;;;;;;;;20.00;46.50;;;;;;8332346;28;19927;-45
2022/09/24 09:10:27;;;;;;;;;;;20.00;46.50;;;;;;8332876;28;19914;-44
2022/09/24 09:14:39;;;;;;;;;;;20.00;46.70;;;;;;8332181;28;19925;-46
2022/09/24 09:18:40;;;;;;;;;;;20.00;46.60;;;;;;8332696;28;19921;-45
2022/09/24 09:22:44;;;;;;;;;;;20.00;46.60;;;;;;8332148;28;19948;-46
2022/09/24 09:26:49;;;;;;;;;;;20.00;46.60;;;;;;8331901;28;19944;-44
2022/09/24 09:30:57;;;;;;;;;;;20.00;46.40;;;;;;8332567;28;20397;-44
2022/09/24 09:35:00;;;;;;;;;;;20.10;46.80;;;;;;8332155;28;19925;-43
2022/09/24 09:39:19;;;;;;;;;;;20.10;46.90;;;;;;8331161;28;19925;-46
2022/09/24 09:43:20;;;;;;;;;;;20.10;46.90;;;;;;8331531;28;20262;-44
2022/09/24 09:47:28;;;;;;;;;;;20.10;46.80;;;;;;8331253;28;19921;-45
2022/09/24 09:51:30;;;;;;;;;;;20.10;47.00;;;;;;8331084;28;20278;-44
2022/09/24 09:55:34;;;;;;;;;;;20.10;47.00;;;;;;8330955;28;20525;-43
2022/09/24 09:59:36;;;;;;;;;;;20.10;47.00;;;;;;8330131;28;19917;-43
2022/09/24 10:03:43;;;;;;;;;;;20.10;46.90;;;;;;8331047;28;19917;-43
2022/09/24 10:07:44;;;;;;;;;;;20.10;46.70;;;;;;8329823;28;20350;-44
2022/09/24 10:11:45;;;;;;;;;;;20.20;47.00;;;;;;8330504;28;19918;-44
2022/09/24 10:16:11;;;;;;;;;;;20.20;46.90;;;;;;8330994;28;19917;-44
2022/09/24 10:20:21;;;;;;;;;;;20.20;47.10;;;;;;8327587;28;20410;-45
2022/09/24 10:24:24;;;;;;;;;;;20.30;47.00;;;;;;8330169;28;19924;-46
2022/09/24 10:32:44;;;;;;;;;;;20.30;47.30;;;;;;8329965;28;19983;-43
2022/09/24 10:36:52;;;;;;;;;;;20.30;47.30;;;;;;8330591;28;20405;-43
2022/09/24 10:40:52;;;;;;;;;;;20.30;47.10;;;;;;8330365;28;19917;-44
2022/09/24 10:44:53;;;;;;;;;;;20.30;47.20;;;;;;8329671;28;19924;-44
2022/09/24 10:49:12;;;;;;;;;;;20.30;47.10;;;;;;8329961;28;19917;-46
2022/09/24 10:53:16;;;;;;;;;;;20.30;47.30;;;;;;8329803;28;19925;-46
2022/09/24 10:57:25;;;;;;;;;;;20.30;46.90;;;;;;8329390;28;20283;-44
2022/09/24 11:01:34;;;;;;;;;;;20.30;47.40;;;;;;8330002;28;19917;-42
2022/09/24 11:05:37;;;;;;;;;;;20.30;47.20;;;;;;8329283;28;20008;-43
2022/09/24 11:09:42;;;;;;;;;;;20.30;47.00;;;;;;8334230;28;19917;-44
2022/09/24 11:13:43;;;;;;;;;;;20.30;47.00;;;;;;8336180;28;19925;-44
2022/09/24 11:17:59;;;;;;;;;;;20.30;47.00;;;;;;8335650;28;19917;-45
2022/09/24 11:22:10;;;;;;;;;;;20.30;47.40;;;;;;8336272;28;19913;-44
2022/09/24 11:26:26;;;;;;;;;;;20.30;47.40;;;;;;8336037;28;20345;-43
2022/09/24 11:30:33;;;;;;;;;;;20.30;47.70;;;;;;8335850;28;19956;-44
2022/09/24 11:34:50;;;;;;;;;;;20.30;47.50;;;;;;8335553;28;19975;-44
2022/09/24 11:39:14;;;;;;;;;;;20.30;47.40;;;;;;8334992;28;20293;-44
2022/09/24 11:43:33;;;;;;;;;;;20.30;47.40;;;;;;8335528;28;19917;-44
2022/09/24 11:47:50;;;;;;;;;;;20.40;47.30;;;;;;8334822;28;19924;-44
2022/09/24 11:51:58;;;;;;;;;;;20.30;47.20;;;;;;8333762;28;21304;-44
2022/09/24 11:56:02;;;;;;;;;;;20.40;48.00;;;;;;8335035;28;19917;-44
2022/09/24 12:00:06;;;;;;;;;;;20.40;47.40;;;;;;8334388;28;20286;-43
2022/09/24 12:04:12;;;;;;;;;;;20.40;47.40;;;;;;8334674;28;20284;-44
2022/09/24 12:08:12;;;;;;;;;;;20.40;47.20;;;;;;8334644;28;19920;-44
2022/09/24 12:12:25;;;;;;;;;;;20.40;47.10;;;;;;8334233;28;20327;-43
2022/09/24 12:16:27;;;;;;;;;;;20.40;47.30;;;;;;8334664;28;20370;-43
2022/09/24 12:20:28;;;;;;;;;;;20.30;47.00;;;;;;8333174;28;19937;-43
2022/09/24 12:24:31;;;;;;;;;;;20.40;47.30;;;;;;8334230;28;19917;-45
2022/09/24 12:33:12;;;;;;;;;;;20.40;47.10;;;;;;8333560;28;20015;-43
2022/09/24 12:37:15;;;;;;;;;;;20.30;47.20;;;;;;8333941;28;19921;-44
2022/09/24 12:41:33;;;;;;;;;;;20.30;47.40;;;;;;8333721;28;19917;-43
2022/09/24 12:45:34;;;;;;;;;;;20.30;47.10;;;;;;8333411;28;19925;-44
2022/09/24 12:49:36;;;;;;;;;;;20.30;47.00;;;;;;8333603;28;20391;-45
2022/09/24 12:53:40;;;;;;;;;;;20.30;47.00;;;;;;8332816;28;19929;-45
2022/09/24 12:57:48;;;;;;;;;;;20.30;47.10;;;;;;8333340;28;19992;-43
2022/09/24 13:01:48;;;;;;;;;;;20.30;47.00;;;;;;8333457;28;19917;-45
2022/09/24 13:05:48;;;;;;;;;;;20.30;47.00;;;;;;8331393;28;19917;-45
2022/09/24 13:09:49;;;;;;;;;;;20.30;47.00;;;;;;8332778;28;19917;-44
2022/09/24 13:13:57;;;;;;;;;;;20.30;47.30;;;;;;8332557;28;20444;-45
2022/09/24 13:18:10;;;;;;;;;;;20.30;47.10;;;;;;8332141;28;20382;-46
2022/09/24 13:22:25;;;;;;;;;;;20.30;47.10;;;;;;8332964;28;19921;-43
2022/09/24 13:26:27;;;;;;;;;;;20.30;47.30;;;;;;8332085;28;19925;-44
2022/09/24 13:30:28;;;;;;;;;;;20.30;47.30;;;;;;8331757;28;19918;-45
2022/09/24 13:34:31;;;;;;;;;;;20.30;47.10;;;;;;8331440;28;19928;-45
2022/09/24 13:38:37;;;;;;;;;;;20.30;47.20;;;;;;8331550;28;19927;-46
2022/09/24 13:42:50;;;;;;;;;;;20.30;47.30;;;;;;8332237;28;19939;-45
2022/09/24 13:46:55;;;;;;;;;;;20.40;47.20;;;;;;8331915;28;20344;-44
2022/09/24 13:50:55;;;;;;;;;;;20.30;47.30;;;;;;8330885;28;19928;-44
2022/09/24 13:54:59;;;;;;;;;;;20.40;47.20;;;;;;8331581;28;20393;-44
2022/09/24 13:59:05;;;;;;;;;;;20.40;47.20;;;;;;8331382;28;20309;-44
2022/09/24 14:03:11;;;;;;;;;;;20.30;47.00;;;;;;8331150;28;20397;-44
2022/09/24 14:07:12;;;;;;;;;;;20.40;47.10;;;;;;8331512;28;19917;-45
2022/09/24 14:11:25;;;;;;;;;;;20.40;47.10;;;;;;8331169;28;20043;-45
2022/09/24 14:15:25;;;;;;;;;;;20.40;47.10;;;;;;8330478;28;19951;-44
2022/09/24 14:19:26;;;;;;;;;;;20.40;47.20;;;;;;8330770;28;19917;-44
2022/09/24 14:23:29;;;;;;;;;;;20.40;46.90;;;;;;8330242;28;19950;-45
2022/09/24 14:27:31;;;;;;;;;;;20.40;47.00;;;;;;8330905;28;19913;-43
2022/09/24 14:31:31;;;;;;;;;;;20.40;47.00;;;;;;8330777;28;20329;-44
2022/09/24 14:35:33;;;;;;;;;;;20.40;47.00;;;;;;8329835;28;19979;-45
2022/09/24 14:39:36;;;;;;;;;;;20.50;47.00;;;;;;8330345;28;19990;-44
2022/09/24 14:43:40;;;;;;;;;;;20.40;47.00;;;;;;8330075;28;20329;-45
2022/09/24 14:47:40;;;;;;;;;;;20.40;47.00;;;;;;8330107;28;20444;-44
2022/09/24 14:51:49;;;;;;;;;;;20.40;46.90;;;;;;8330157;28;19917;-42
2022/09/24 14:55:50;;;;;;;;;;;20.40;46.90;;;;;;8330136;28;19917;-44
2022/09/24 14:59:51;;;;;;;;;;;20.40;47.00;;;;;;8329745;28;20011;-44
2022/09/24 15:03:56;;;;;;;;;;;20.40;46.90;;;;;;8330010;28;19986;-44
2022/09/24 15:08:29;;;;;;;;;;;20.40;47.00;;;;;;8330477;28;19913;-43
2022/09/24 15:12:34;;;;;;;;;;;20.40;47.00;;;;;;8285822;28;20020;-44
2022/09/24 15:16:35;;;;;;;;;;;20.40;47.10;;;;;;8321636;28;19918;-45
2022/09/24 15:20:36;;;;;;;;;;;20.40;47.00;;;;;;8329352;28;19921;-45
2022/09/24 15:24:37;;;;;;;;;;;20.40;47.00;;;;;;8329680;28;20393;-43
2022/09/24 15:28:37;;;;;;;;;;;20.40;47.00;;;;;;8329767;28;20275;-43
2022/09/24 15:32:37;;;;;;;;;;;20.40;47.00;;;;;;8329157;28;19925;-43
2022/09/24 15:36:39;;;;;;;;;;;20.40;47.00;;;;;;8329462;28;19968;-44
2022/09/24 15:40:41;;;;;;;;;;;20.40;47.10;;;;;;8329266;28;19913;-44
2022/09/24 15:44:41;;;;;;;;;;;20.40;47.00;;;;;;8329258;28;20000;-45
2022/09/24 15:48:43;;;;;;;;;;;20.40;47.00;;;;;;8329583;28;19920;-44
2022/09/24 15:52:46;;;;;;;;;;;20.40;47.10;;;;;;8329167;28;19925;-43
2022/09/24 15:56:51;;;;;;;;;;;20.40;47.10;;;;;;8333028;28;19917;-44
2022/09/24 16:00:51;;;;;;;;;;;20.40;47.20;;;;;;8334952;28;20385;-43
2022/09/24 16:04:52;;;;;;;;;;;20.40;47.20;;;;;;8325242;28;19920;-45
2022/09/24 16:08:52;;;;;;;;;;;20.40;47.10;;;;;;8334533;28;19917;-44
2022/09/24 16:12:53;;;;;;;;;;;20.40;47.20;;;;;;8334486;28;19941;-44
2022/09/24 16:16:54;;;;;;;;;;;20.30;47.10;;;;;;8334549;28;20293;-46
2022/09/24 16:20:55;;;;;;;;;;;20.30;47.20;;;;;;8333790;28;19921;-45
2022/09/24 16:24:55;;;;;;;;;;;20.30;47.20;;;;;;8334174;28;19913;-44
2022/09/24 16:28:56;;;;;;;;;;;20.40;47.20;;;;;;8334333;28;19963;-44
2022/09/24 16:32:56;;;;;;;;;;;20.40;47.10;;;;;;8333543;28;19933;-46
2022/09/24 16:36:57;;;;;;;;;;;20.30;47.20;;;;;;8333744;28;19921;-43
2022/09/24 16:40:58;;;;;;;;;;;20.40;47.10;;;;;;8333666;28;19913;-44
2022/09/24 16:44:59;;;;;;;;;;;20.30;47.10;;;;;;8333424;28;19924;-45
2022/09/24 16:48:59;;;;;;;;;;;20.30;47.10;;;;;;8333682;28;19913;-46
2022/09/24 16:52:59;;;;;;;;;;;20.30;47.10;;;;;;8333190;28;20409;-43
2022/09/24 16:57:02;;;;;;;;;;;20.30;47.10;;;;;;8333194;28;20380;-44
2022/09/24 17:01:03;;;;;;;;;;;20.30;47.10;;;;;;8333168;28;19917;-44
2022/09/24 17:05:04;;;;;;;;;;;20.30;47.10;;;;;;8332954;28;19917;-45
2022/09/24 17:13:24;;;;;;;;;;;20.30;47.10;;;;;;8338703;28;19979;-44
2022/09/24 17:17:24;;;;;;;;;;;20.30;47.20;;;;;;8332544;28;19917;-45
2022/09/24 17:21:25;;;;;;;;;;;20.30;47.20;;;;;;8332040;28;19921;-43
2022/09/24 17:25:26;;;;;;;;;;;20.30;47.20;;;;;;8332307;28;19924;-43
2022/09/24 17:29:28;;;;;;;;;;;20.30;47.20;;;;;;8332141;28;20347;-44
2022/09/24 17:33:29;;;;;;;;;;;20.30;47.30;;;;;;8332276;28;20452;-44
2022/09/24 17:37:29;;;;;;;;;;;20.30;47.20;;;;;;8331956;28;19921;-43
2022/09/24 17:41:30;;;;;;;;;;;20.30;47.20;;;;;;8331563;28;20025;-45
2022/09/24 17:45:30;;;;;;;;;;;20.30;47.30;;;;;;8332079;28;20334;-43
2022/09/24 17:49:31;;;;;;;;;;;20.30;47.30;;;;;;8331760;28;19924;-43
2022/09/24 17:53:32;;;;;;;;;;;20.30;47.10;;;;;;8330867;28;19971;-44
2022/09/24 17:57:32;;;;;;;;;;;20.30;47.20;;;;;;8331852;28;19917;-44
2022/09/24 18:01:35;;;;;;;;;;;20.30;47.20;;;;;;8331157;28;19960;-46
2022/09/24 18:05:36;;;;;;;;;;;20.30;47.30;;;;;;8330734;28;20388;-44
2022/09/24 18:09:37;;;;;;;;;;;20.30;47.80;;;;;;8331602;28;20329;-45
2022/09/24 18:13:37;;;;;;;;;;;20.30;47.30;;;;;;8330690;28;19948;-44
2022/09/24 18:17:38;;;;;;;;;;;20.30;47.50;;;;;;8329772;28;19921;-46
2022/09/24 18:21:38;;;;;;;;;;;20.30;47.30;;;;;;8330738;28;19963;-44
2022/09/24 18:25:39;;;;;;;;;;;20.20;47.30;;;;;;8329372;28;19913;-44
2022/09/24 18:29:39;;;;;;;;;;;20.20;47.20;;;;;;8330517;28;19924;-45
2022/09/24 18:33:41;;;;;;;;;;;20.20;47.20;;;;;;8329567;28;19983;-43
2022/09/24 18:37:42;;;;;;;;;;;20.20;47.30;;;;;;8329289;28;20497;-43
2022/09/24 18:41:43;;;;;;;;;;;20.20;47.30;;;;;;8330043;28;20017;-44
2022/09/24 18:45:43;;;;;;;;;;;20.20;47.30;;;;;;8330523;28;19951;-44
2022/09/24 18:49:43;;;;;;;;;;;20.20;47.20;;;;;;8330460;28;19917;-43
2022/09/24 18:53:48;;;;;;;;;;;20.20;47.30;;;;;;8329573;28;19960;-46
2022/09/24 18:57:49;;;;;;;;;;;20.20;47.20;;;;;;8330362;28;19917;-43
2022/09/24 19:01:50;;;;;;;;;;;20.20;47.30;;;;;;8330138;28;19921;-46
2022/09/24 19:05:51;;;;;;;;;;;20.20;47.70;;;;;;8329257;28;20476;-44
2022/09/24 19:09:52;;;;;;;;;;;20.20;47.30;;;;;;8312849;28;19914;-44
2022/09/24 19:13:52;;;;;;;;;;;20.20;47.30;;;;;;8327563;28;20394;-44
2022/09/24 19:17:53;;;;;;;;;;;20.20;47.30;;;;;;8329365;28;19917;-44
2022/09/24 19:21:53;;;;;;;;;;;20.20;47.10;;;;;;8329701;28;19924;-46
2022/09/24 19:25:58;;;;;;;;;;;20.20;47.20;;;;;;8329699;28;19941;-44
2022/09/24 19:29:59;;;;;;;;;;;20.20;47.20;;;;;;8332683;28;19967;-46
2022/09/24 19:34:03;;;;;;;;;;;20.20;47.20;;;;;;8335970;28;19925;-44
2022/09/24 19:38:03;;;;;;;;;;;20.20;47.30;;;;;;8335636;28;19921;-43
2022/09/24 19:42:04;;;;;;;;;;;20.20;47.40;;;;;;8335199;28;20370;-44
2022/09/24 19:46:06;;;;;;;;;;;20.20;47.30;;;;;;8335429;28;19913;-45
2022/09/24 19:50:07;;;;;;;;;;;20.10;47.40;;;;;;8335691;28;19944;-43
2022/09/24 19:54:08;;;;;;;;;;;20.10;47.20;;;;;;8334984;28;19925;-45
2022/09/24 19:58:09;;;;;;;;;;;20.10;47.20;;;;;;8335065;28;19917;-44
2022/09/24 20:02:10;;;;;;;;;;;20.10;47.30;;;;;;8335021;28;19917;-44
2022/09/24 20:06:15;;;;;;;;;;;20.10;47.10;;;;;;8334421;28;19921;-44
2022/09/24 20:10:15;;;;;;;;;;;20.10;47.30;;;;;;8334902;28;19920;-45
2022/09/24 20:14:16;;;;;;;;;;;20.10;47.20;;;;;;8334541;28;20283;-45
2022/09/24 20:18:16;;;;;;;;;;;20.10;47.10;;;;;;8333985;28;19917;-44
2022/09/24 20:22:17;;;;;;;;;;;20.10;47.20;;;;;;8334594;28;19952;-43
2022/09/24 20:30:36;;;;;;;;;;;20.10;47.20;;;;;;8334493;28;19977;-44
2022/09/24 20:34:37;;;;;;;;;;;20.10;47.10;;;;;;8333915;28;19925;-43
2022/09/24 20:38:37;;;;;;;;;;;20.10;47.10;;;;;;8333428;28;19921;-44
2022/09/24 20:42:38;;;;;;;;;;;20.10;47.30;;;;;;8333019;28;20345;-43
2022/09/24 20:46:38;;;;;;;;;;;20.10;47.20;;;;;;8333782;28;20291;-45
2022/09/24 20:50:39;;;;;;;;;;;20.00;47.20;;;;;;8333303;28;19919;-44
2022/09/24 20:54:39;;;;;;;;;;;20.00;47.20;;;;;;8333569;28;19948;-44
2022/09/24 20:58:40;;;;;;;;;;;20.00;47.30;;;;;;8333220;28;19917;-46
2022/09/24 21:02:40;;;;;;;;;;;20.00;47.20;;;;;;8331370;28;19971;-44
2022/09/24 21:06:41;;;;;;;;;;;20.00;47.20;;;;;;8333355;28;20016;-45
2022/09/24 21:10:42;;;;;;;;;;;20.00;47.20;;;;;;8333296;28;19920;-44
2022/09/24 21:14:42;;;;;;;;;;;20.00;47.10;;;;;;8332285;28;20305;-45
2022/09/24 21:18:43;;;;;;;;;;;20.00;47.10;;;;;;8332720;28;20013;-44
2022/09/24 21:22:44;;;;;;;;;;;20.00;47.10;;;;;;8331226;28;19917;-44
2022/09/24 21:26:45;;;;;;;;;;;20.00;47.10;;;;;;8332160;28;20365;-44
2022/09/24 21:30:56;;;;;;;;;;;20.00;47.20;;;;;;8332784;28;20005;-44
2022/09/24 21:34:57;;;;;;;;;;;20.00;47.00;;;;;;8332017;28;19925;-44
2022/09/24 21:39:02;;;;;;;;;;;19.90;47.00;;;;;;8331586;28;19921;-43
2022/09/24 21:43:05;;;;;;;;;;;20.00;47.10;;;;;;8331859;28;19917;-45
2022/09/24 21:47:05;;;;;;;;;;;19.90;47.00;;;;;;8331782;28;19921;-44
2022/09/24 21:51:07;;;;;;;;;;;19.90;47.00;;;;;;8331300;28;19974;-44
2022/09/24 21:55:10;;;;;;;;;;;19.90;47.10;;;;;;8329265;28;19932;-44
2022/09/24 22:03:29;;;;;;;;;;;19.90;47.00;;;;;;8330144;28;19987;-42
2022/09/24 22:07:30;;;;;;;;;;;19.90;47.10;;;;;;8325856;28;19918;-44
2022/09/24 22:11:30;;;;;;;;;;;19.90;47.10;;;;;;8330709;28;19917;-42
2022/09/24 22:15:31;;;;;;;;;;;19.90;47.00;;;;;;8331377;28;19925;-43
2022/09/24 22:19:31;;;;;;;;;;;19.90;47.00;;;;;;8331033;28;19923;-43
2022/09/24 22:23:32;;;;;;;;;;;19.90;47.00;;;;;;8330138;28;20388;-45
2022/09/24 22:27:32;;;;;;;;;;;19.90;46.90;;;;;;8331232;28;19917;-43
2022/09/24 22:31:33;;;;;;;;;;;19.90;47.10;;;;;;8330526;28;19959;-42
2022/09/24 22:35:49;;;;;;;;;;;19.90;47.10;;;;;;8330332;28;19953;-43
2022/09/24 22:39:49;;;;;;;;;;;19.90;47.10;;;;;;8331071;28;19924;-43
2022/09/24 22:43:50;;;;;;;;;;;19.90;47.10;;;;;;8330506;28;19924;-43
2022/09/24 22:47:52;;;;;;;;;;;19.90;47.00;;;;;;8329894;28;20293;-44
2022/09/24 22:51:52;;;;;;;;;;;19.90;47.10;;;;;;8330258;28;19913;-44
2022/09/24 22:56:03;;;;;;;;;;;19.90;47.00;;;;;;8330270;28;20298;-44
2022/09/24 23:00:05;;;;;;;;;;;19.80;47.00;;;;;;8329701;28;19924;-44
2022/09/24 23:04:05;;;;;;;;;;;19.90;47.10;;;;;;8332327;28;19923;-44
2022/09/24 23:08:06;;;;;;;;;;;19.80;46.90;;;;;;8336719;28;19918;-46
2022/09/24 23:12:07;;;;;;;;;;;19.80;47.00;;;;;;8334927;28;19925;-44
2022/09/24 23:16:09;;;;;;;;;;;19.80;46.90;;;;;;8336662;28;19913;-44
2022/09/24 23:20:09;;;;;;;;;;;19.80;46.90;;;;;;8336419;28;19917;-43
2022/09/24 23:24:14;;;;;;;;;;;19.80;46.80;;;;;;8335870;28;20294;-44
2022/09/24 23:28:14;;;;;;;;;;;19.80;47.00;;;;;;8336155;28;19917;-44
2022/09/24 23:32:15;;;;;;;;;;;19.80;47.40;;;;;;8335910;28;19987;-43
2022/09/24 23:36:16;;;;;;;;;;;19.80;46.90;;;;;;8335959;28;19925;-44
2022/09/24 23:40:16;;;;;;;;;;;19.80;47.00;;;;;;8336032;28;19921;-43
2022/09/24 23:44:17;;;;;;;;;;;19.80;47.00;;;;;;8335738;28;19924;-43
2022/09/24 23:48:17;;;;;;;;;;;19.80;47.00;;;;;;8335078;28;19956;-44
2022/09/24 23:52:18;;;;;;;;;;;19.80;47.00;;;;;;8335334;28;19921;-44
2022/09/24 23:56:18;;;;;;;;;;;19.70;46.80;;;;;;8335726;28;19921;-42
